createdAt,value
2019-06-01T00:00:21.650Z,101147.19
2019-06-01T00:03:27.495Z,101157.08
2019-06-01T00:06:32.355Z,101156.29
2019-06-01T00:09:37.430Z,101159.36
2019-06-01T00:12:43.271Z,101153.31
2019-06-01T00:15:48.462Z,101148.55
2019-06-01T00:18:53.547Z,101145.41
2019-06-01T00:21:58.293Z,101146.53
2019-06-01T00:25:03.202Z,101146.68
2019-06-01T00:28:09.371Z,101148.81
2019-06-01T00:31:14.127Z,101144.30
2019-06-01T00:34:19.372Z,101138.89
2019-06-01T00:37:24.361Z,101137.16
2019-06-01T00:40:29.253Z,101137.80
2019-06-01T00:43:35.065Z,101141.80
2019-06-01T00:46:40.069Z,101134.52
2019-06-01T00:49:44.909Z,101144.02
2019-06-01T00:52:51.327Z,101145.67
2019-06-01T00:55:56.217Z,101138.06
2019-06-01T00:59:00.932Z,101134.76
2019-06-01T01:02:05.830Z,101141.27
2019-06-01T01:05:11.901Z,101135.31
2019-06-01T01:08:16.724Z,101130.69
2019-06-01T01:11:21.445Z,101135.16
2019-06-01T01:14:26.506Z,101130.53
2019-06-01T01:17:31.242Z,101133.81
2019-06-01T01:20:37.029Z,101131.35
2019-06-01T01:23:41.835Z,101136.35
2019-06-01T01:26:46.897Z,101133.55
2019-06-01T01:29:53.173Z,101133.22
2019-06-01T01:32:59.440Z,101131.59
2019-06-01T01:36:04.585Z,101133.06
2019-06-01T01:39:09.973Z,101137.16
2019-06-01T01:42:14.761Z,101134.16
2019-06-01T01:45:19.629Z,101141.06
2019-06-01T01:48:24.375Z,101133.45
2019-06-01T01:51:29.098Z,101131.97
2019-06-01T01:54:33.868Z,101129.37
2019-06-01T01:57:39.678Z,101126.08
2019-06-01T02:00:45.919Z,101135.50
2019-06-01T02:03:51.665Z,101133.20
2019-06-01T02:06:58.451Z,101137.27
2019-06-01T02:10:03.630Z,101134.20
2019-06-01T02:13:08.900Z,101134.67
2019-06-01T02:16:15.323Z,101129.75
2019-06-01T02:19:20.068Z,101128.81
2019-06-01T02:22:25.119Z,101128.48
2019-06-01T02:25:30.079Z,101123.69
2019-06-01T02:28:34.886Z,101133.97
2019-06-01T02:31:42.099Z,101126.64
2019-06-01T02:34:46.058Z,101125.64
2019-06-01T02:37:50.872Z,101125.25
2019-06-01T02:40:57.007Z,101124.14
2019-06-01T02:44:03.755Z,101127.00
2019-06-01T02:47:08.577Z,101120.74
2019-06-01T02:50:13.598Z,101126.94
2019-06-01T02:53:18.389Z,101120.81
2019-06-01T02:56:23.132Z,101125.67
2019-06-01T02:59:27.853Z,101131.56
2019-06-01T03:02:33.580Z,101125.44
2019-06-01T03:05:39.202Z,101129.19
2019-06-01T03:08:49.129Z,101127.68
2019-06-01T03:11:55.720Z,101131.90
2019-06-01T03:15:02.640Z,101130.70
2019-06-01T03:18:09.457Z,101131.85
2019-06-01T03:21:18.862Z,101136.59
2019-06-01T03:24:25.855Z,101127.88
2019-06-01T03:27:32.687Z,101130.62
2019-06-01T03:30:45.204Z,101118.84
2019-06-01T03:33:48.746Z,101117.88
2019-06-01T03:36:56.292Z,101119.05
2019-06-01T03:40:01.236Z,101120.72
2019-06-01T03:43:07.256Z,101119.45
2019-06-01T03:46:13.056Z,101119.86
2019-06-01T03:49:17.859Z,101118.93
2019-06-01T03:52:22.583Z,101119.05
2019-06-01T03:55:27.350Z,101123.36
2019-06-01T03:58:32.158Z,101120.33
2019-06-01T04:01:36.914Z,101120.33
2019-06-01T04:04:41.807Z,101116.20
2019-06-01T04:07:46.822Z,101112.98
2019-06-01T04:10:51.861Z,101111.48
2019-06-01T04:13:56.625Z,101108.57
2019-06-01T04:17:02.000Z,101113.36
2019-06-01T04:20:08.243Z,101118.66
2019-06-01T04:23:13.007Z,101115.99
2019-06-01T04:26:18.112Z,101128.21
2019-06-01T04:29:23.838Z,101118.89
2019-06-01T04:32:28.707Z,101118.67
2019-06-01T04:35:34.443Z,101116.35
2019-06-01T04:38:39.539Z,101121.61
2019-06-01T04:41:44.422Z,101113.62
2019-06-01T04:44:49.246Z,101121.37
2019-06-01T04:47:54.257Z,101129.25
2019-06-01T04:50:59.245Z,101120.91
2019-06-01T04:54:04.825Z,101121.78
2019-06-01T04:57:11.011Z,101125.41
2019-06-01T05:00:26.010Z,101121.02
2019-06-01T05:03:22.927Z,101121.98
2019-06-01T05:06:27.668Z,101125.61
2019-06-01T05:09:32.679Z,101129.30
2019-06-01T05:12:37.442Z,101129.70
2019-06-01T05:15:42.454Z,101129.41
2019-06-01T05:18:47.522Z,101130.05
2019-06-01T05:21:52.250Z,101141.89
2019-06-01T05:24:57.369Z,101138.66
2019-06-01T05:28:02.237Z,101145.63
2019-06-01T05:31:09.747Z,101145.31
2019-06-01T05:34:14.116Z,101146.60
2019-06-01T05:37:18.896Z,101147.17
2019-06-01T05:40:23.748Z,101144.20
2019-06-01T05:43:28.563Z,101140.59
2019-06-01T05:46:33.363Z,101148.87
2019-06-01T05:49:38.125Z,101145.58
2019-06-01T05:52:42.909Z,101148.19
2019-06-01T05:55:47.964Z,101145.22
2019-06-01T05:58:53.541Z,101147.55
2019-06-01T06:01:58.656Z,101146.45
2019-06-01T06:05:03.658Z,101157.19
2019-06-01T06:08:09.673Z,101147.70
2019-06-01T06:11:14.943Z,101150.32
2019-06-01T06:14:22.267Z,101149.88
2019-06-01T06:17:26.974Z,101147.25
2019-06-01T06:20:31.838Z,101154.86
2019-06-01T06:23:36.665Z,101153.39
2019-06-01T06:26:41.471Z,101149.95
2019-06-01T06:29:46.455Z,101151.10
2019-06-01T06:32:51.328Z,101151.87
2019-06-01T06:35:57.290Z,101151.69
2019-06-01T06:39:04.726Z,101153.05
2019-06-01T06:42:09.019Z,101150.39
2019-06-01T06:45:14.604Z,101154.00
2019-06-01T06:48:21.180Z,101150.28
2019-06-01T06:51:27.185Z,101147.47
2019-06-01T06:54:32.893Z,101152.05
2019-06-01T06:57:37.676Z,101151.87
2019-06-01T07:00:42.473Z,101150.30
2019-06-01T07:03:47.559Z,101148.66
2019-06-01T07:06:52.345Z,101148.03
2019-06-01T07:09:57.176Z,101150.77
2019-06-01T07:13:02.591Z,101147.48
2019-06-01T07:16:07.398Z,101153.46
2019-06-01T07:19:12.201Z,101152.36
2019-06-01T07:22:17.356Z,101150.94
2019-06-01T07:25:22.555Z,101149.56
2019-06-01T07:28:28.329Z,101143.92
2019-06-01T07:31:33.143Z,101148.06
2019-06-01T07:34:42.111Z,101141.39
2019-06-01T07:37:44.750Z,101137.61
2019-06-01T07:40:49.542Z,101135.61
2019-06-01T07:43:54.346Z,101133.28
2019-06-01T07:46:59.498Z,101122.90
2019-06-01T07:50:05.052Z,101136.97
2019-06-01T07:53:10.101Z,101132.31
2019-06-01T07:56:14.978Z,101133.47
2019-06-01T07:59:19.952Z,101129.30
2019-06-01T08:02:26.244Z,101126.77
2019-06-01T08:05:32.218Z,101122.05
2019-06-01T08:08:37.123Z,101121.31
2019-06-01T08:11:42.154Z,101124.64
2019-06-01T08:14:46.983Z,101128.95
2019-06-01T08:17:52.467Z,101118.20
2019-06-01T08:20:57.661Z,101119.80
2019-06-01T08:24:02.631Z,101124.87
2019-06-01T08:27:07.555Z,101123.17
2019-06-01T08:30:12.719Z,101118.39
2019-06-01T08:33:17.561Z,101116.85
2019-06-01T08:36:23.142Z,101110.83
2019-06-01T08:39:29.464Z,101118.48
2019-06-01T08:42:34.419Z,101112.61
2019-06-01T08:45:39.294Z,101110.29
2019-06-01T08:48:44.222Z,101104.24
2019-06-01T08:51:49.083Z,101092.83
2019-06-01T08:54:57.006Z,101094.92
2019-06-01T08:58:01.851Z,101094.89
2019-06-01T09:01:06.970Z,101089.11
2019-06-01T09:04:11.889Z,101095.78
2019-06-01T09:07:18.042Z,101085.61
2019-06-01T09:10:22.892Z,101092.34
2019-06-01T09:13:29.098Z,101094.43
2019-06-01T09:16:35.937Z,101089.02
2019-06-01T09:19:41.623Z,101081.99
2019-06-01T09:22:48.151Z,101088.92
2019-06-01T09:25:53.276Z,101075.52
2019-06-01T09:28:58.424Z,101071.71
2019-06-01T09:32:10.603Z,101077.98
2019-06-01T09:35:12.645Z,101074.84
2019-06-01T09:38:17.529Z,101081.55
2019-06-01T09:41:22.709Z,101080.75
2019-06-01T09:44:28.862Z,101077.53
2019-06-01T09:47:34.007Z,101074.17
2019-06-01T09:50:39.089Z,101077.91
2019-06-01T09:53:43.862Z,101074.98
2019-06-01T09:56:48.667Z,101075.72
2019-06-01T09:59:53.450Z,101069.27
2019-06-01T10:02:58.327Z,101067.27
2019-06-01T10:06:03.345Z,101069.07
2019-06-01T10:09:09.706Z,101060.73
2019-06-01T10:12:14.611Z,101064.79
2019-06-01T10:15:19.428Z,101064.84
2019-06-01T10:18:26.903Z,101062.88
2019-06-01T10:21:32.058Z,101060.33
2019-06-01T10:24:37.315Z,101056.68
2019-06-01T10:27:42.864Z,101059.12
2019-06-01T10:30:48.748Z,101055.69
2019-06-01T10:33:53.510Z,101058.20
2019-06-01T10:36:58.297Z,101051.86
2019-06-01T10:40:03.354Z,101056.55
2019-06-01T10:43:08.578Z,101047.30
2019-06-01T10:46:13.643Z,101044.89
2019-06-01T10:49:18.898Z,101041.59
2019-06-01T10:52:23.634Z,101038.80
2019-06-01T10:55:28.469Z,101037.23
2019-06-01T10:58:34.578Z,101033.25
2019-06-01T11:01:40.922Z,101025.42
2019-06-01T11:04:45.784Z,101028.64
2019-06-01T11:07:50.596Z,101029.41
2019-06-01T11:10:55.689Z,101017.58
2019-06-01T11:14:01.874Z,101018.31
2019-06-01T11:17:06.709Z,101024.59
2019-06-01T11:20:12.185Z,101016.78
2019-06-01T11:23:17.009Z,101019.63
2019-06-01T11:26:22.080Z,101019.19
2019-06-01T11:29:27.790Z,101014.91
2019-06-01T11:32:33.673Z,101010.34
2019-06-01T11:35:39.217Z,101018.29
2019-06-01T11:38:44.869Z,101008.23
2019-06-01T11:41:51.286Z,101006.61
2019-06-01T11:44:56.405Z,100998.38
2019-06-01T11:48:01.935Z,100997.70
2019-06-01T11:51:06.820Z,100991.64
2019-06-01T11:54:11.898Z,100984.08
2019-06-01T11:57:17.064Z,100989.94
2019-06-01T12:00:22.359Z,100984.50
2019-06-01T12:03:27.109Z,100979.80
2019-06-01T12:06:31.849Z,100970.59
2019-06-01T12:09:37.717Z,100978.97
2019-06-01T12:12:42.574Z,100970.23
2019-06-01T12:15:47.692Z,100959.31
2019-06-01T12:18:52.493Z,100952.75
2019-06-01T12:21:57.680Z,100951.10
2019-06-01T12:25:02.981Z,100945.48
2019-06-01T12:28:07.985Z,100942.80
2019-06-01T12:31:12.913Z,100941.54
2019-06-01T12:34:17.972Z,100936.53
2019-06-01T12:37:39.974Z,100937.73
2019-06-01T12:40:29.937Z,100938.97
2019-06-01T12:43:35.403Z,100932.73
2019-06-01T12:46:41.618Z,100931.79
2019-06-01T12:49:46.776Z,100931.18
2019-06-01T12:52:52.638Z,100927.30
2019-06-01T12:55:57.480Z,100918.06
2019-06-01T12:59:02.270Z,100923.97
2019-06-01T13:02:07.104Z,100922.32
2019-06-01T13:05:12.823Z,100913.09
2019-06-01T13:08:17.606Z,100909.13
2019-06-01T13:11:22.337Z,100904.63
2019-06-01T13:14:27.169Z,100902.86
2019-06-01T13:17:31.974Z,100898.13
2019-06-01T13:20:37.416Z,100886.61
2019-06-01T13:23:43.414Z,100882.61
2019-06-01T13:26:48.127Z,100881.11
2019-06-01T13:29:55.359Z,100879.70
2019-06-01T13:33:00.478Z,100869.53
2019-06-01T13:36:05.382Z,100871.30
2019-06-01T13:39:10.158Z,100870.27
2019-06-01T13:42:15.520Z,100868.22
2019-06-01T13:45:21.395Z,100864.33
2019-06-01T13:48:26.171Z,100859.05
2019-06-01T13:51:31.298Z,100857.69
2019-06-01T13:54:40.020Z,100847.43
2019-06-01T13:57:44.165Z,100841.32
2019-06-01T14:00:49.193Z,100832.86
2019-06-01T14:03:55.665Z,100832.59
2019-06-01T14:07:00.583Z,100826.00
2019-06-01T14:10:06.295Z,100830.80
2019-06-01T14:13:11.446Z,100825.48
2019-06-01T14:16:16.281Z,100824.99
2019-06-01T14:19:21.042Z,100828.70
2019-06-01T14:22:25.827Z,100821.53
2019-06-01T14:25:30.541Z,100817.67
2019-06-01T14:28:35.857Z,100819.75
2019-06-01T14:31:40.690Z,100820.34
2019-06-01T14:34:46.313Z,100823.42
2019-06-01T14:37:52.011Z,100820.39
2019-06-01T14:40:58.221Z,100806.17
2019-06-01T14:44:03.071Z,100803.73
2019-06-01T14:47:07.844Z,100802.63
2019-06-01T14:50:12.852Z,100799.56
2019-06-01T14:53:17.890Z,100795.58
2019-06-01T14:56:22.622Z,100792.44
2019-06-01T14:59:27.391Z,100795.38
2019-06-01T15:02:32.297Z,100786.44
2019-06-01T15:05:37.023Z,100782.95
2019-06-01T15:08:42.317Z,100782.53
2019-06-01T15:11:48.924Z,100781.84
2019-06-01T15:14:55.472Z,100775.42
2019-06-01T15:18:04.800Z,100774.51
2019-06-01T15:21:07.528Z,100765.50
2019-06-01T15:24:12.293Z,100772.74
2019-06-01T15:27:17.197Z,100771.17
2019-06-01T15:30:22.632Z,100768.28
2019-06-01T15:33:28.105Z,100764.91
2019-06-01T15:36:33.925Z,100763.63
2019-06-01T15:39:38.980Z,100755.22
2019-06-01T15:42:44.048Z,100753.50
2019-06-01T15:45:49.213Z,100754.67
2019-06-01T15:48:55.999Z,100751.14
2019-06-01T15:52:02.052Z,100747.25
2019-06-01T15:55:08.483Z,100748.79
2019-06-01T15:58:13.827Z,100741.42
2019-06-01T16:01:18.594Z,100743.33
2019-06-01T16:04:23.413Z,100736.64
2019-06-01T16:07:28.772Z,100740.28
2019-06-01T16:10:33.562Z,100738.15
2019-06-01T16:13:38.659Z,100737.30
2019-06-01T16:16:43.772Z,100734.02
2019-06-01T16:19:49.098Z,100734.26
2019-06-01T16:22:55.930Z,100734.38
2019-06-01T16:26:12.151Z,100730.95
2019-06-01T16:29:08.215Z,100730.44
2019-06-01T16:32:13.343Z,100731.89
2019-06-01T16:35:18.473Z,100730.03
2019-06-01T16:38:23.267Z,100726.30
2019-06-01T16:41:28.115Z,100727.20
2019-06-01T16:44:32.916Z,100728.84
2019-06-01T16:47:38.243Z,100727.64
2019-06-01T16:50:43.206Z,100716.22
2019-06-01T16:53:48.076Z,100721.09
2019-06-01T16:56:53.197Z,100711.95
2019-06-01T16:59:58.450Z,100712.14
2019-06-01T17:03:05.098Z,100713.77
2019-06-01T17:06:11.220Z,100707.13
2019-06-01T17:09:16.807Z,100698.66
2019-06-01T17:12:21.576Z,100700.78
2019-06-01T17:15:26.478Z,100705.39
2019-06-01T17:18:31.395Z,100706.52
2019-06-01T17:21:36.260Z,100703.62
2019-06-01T17:24:41.243Z,100714.92
2019-06-01T17:27:45.972Z,100706.66
2019-06-01T17:30:51.353Z,100706.15
2019-06-01T17:33:56.417Z,100700.50
2019-06-01T17:37:01.219Z,100696.52
2019-06-01T17:40:08.316Z,100702.38
2019-06-01T17:43:13.650Z,100702.05
2019-06-01T17:46:18.551Z,100697.45
2019-06-01T17:49:23.785Z,100688.15
2019-06-01T17:52:28.872Z,100687.64
2019-06-01T17:55:35.730Z,100689.00
2019-06-01T17:58:40.676Z,100687.30
2019-06-01T18:01:46.469Z,100687.47
2019-06-01T18:04:51.416Z,100686.05
2019-06-01T18:07:56.328Z,100683.50
2019-06-01T18:11:01.937Z,100683.09
2019-06-01T18:14:08.769Z,100683.70
2019-06-01T18:17:13.696Z,100680.79
2019-06-01T18:20:18.942Z,100688.42
2019-06-01T18:23:23.823Z,100678.19
2019-06-01T18:26:28.745Z,100682.59
2019-06-01T18:29:38.807Z,100674.03
2019-06-01T18:32:41.858Z,100676.75
2019-06-01T18:35:47.010Z,100674.78
2019-06-01T18:38:52.122Z,100682.47
2019-06-01T18:41:56.989Z,100681.73
2019-06-01T18:45:01.913Z,100681.20
2019-06-01T18:48:08.180Z,100686.92
2019-06-01T18:51:14.456Z,100688.07
2019-06-01T18:54:19.525Z,100679.38
2019-06-01T18:57:24.348Z,100684.53
2019-06-01T19:00:29.652Z,100683.64
2019-06-01T19:03:34.524Z,100679.00
2019-06-01T19:06:39.860Z,100681.13
2019-06-01T19:09:44.719Z,100673.90
2019-06-01T19:12:49.562Z,100676.29
2019-06-01T19:15:54.405Z,100673.17
2019-06-01T19:18:59.237Z,100676.96
2019-06-01T19:22:04.157Z,100675.30
2019-06-01T19:25:11.169Z,100679.27
2019-06-01T19:28:17.506Z,100684.89
2019-06-01T19:31:22.523Z,100688.13
2019-06-01T19:34:27.466Z,100698.99
2019-06-01T19:37:33.244Z,100697.22
2019-06-01T19:40:39.462Z,100693.65
2019-06-01T19:43:45.479Z,100699.43
2019-06-01T19:46:51.945Z,100696.95
2019-06-01T19:49:57.152Z,100701.28
2019-06-01T19:53:03.230Z,100699.64
2019-06-01T19:56:08.817Z,100703.16
2019-06-01T19:59:13.893Z,100700.20
2019-06-01T20:02:29.556Z,100709.27
2019-06-01T20:05:26.247Z,100709.19
2019-06-01T20:08:31.638Z,100712.84
2019-06-01T20:11:36.453Z,100708.75
2019-06-01T20:14:41.530Z,100708.73
2019-06-01T20:17:46.398Z,100709.27
2019-06-01T20:20:51.348Z,100708.20
2019-06-01T20:23:56.427Z,100717.20
2019-06-01T20:27:01.481Z,100712.75
2019-06-01T20:30:07.309Z,100717.20
2019-06-01T20:33:14.075Z,100719.08
2019-06-01T20:36:20.236Z,100714.37
2019-06-01T20:39:25.344Z,100712.20
2019-06-01T20:42:32.856Z,100710.40
2019-06-01T20:45:38.809Z,100712.23
2019-06-01T20:48:44.752Z,100714.41
2019-06-01T20:51:50.018Z,100715.75
2019-06-01T20:54:55.110Z,100706.36
2019-06-01T20:58:00.106Z,100711.04
2019-06-01T21:01:05.114Z,100707.40
2019-06-01T21:04:10.161Z,100711.77
2019-06-01T21:07:15.748Z,100715.28
2019-06-01T21:10:22.352Z,100711.64
2019-06-01T21:13:27.475Z,100714.13
2019-06-01T21:16:32.397Z,100709.25
2019-06-01T21:19:37.601Z,100709.52
2019-06-01T21:22:42.581Z,100707.45
2019-06-01T21:25:47.640Z,100705.03
2019-06-01T21:28:52.665Z,100706.40
2019-06-01T21:31:57.757Z,100701.63
2019-06-01T21:35:03.693Z,100702.95
2019-06-01T21:38:08.455Z,100711.41
2019-06-01T21:41:13.298Z,100713.64
2019-06-01T21:44:18.138Z,100715.59
2019-06-01T21:47:23.832Z,100716.84
2019-06-01T21:50:28.725Z,100711.69
2019-06-01T21:53:33.488Z,100709.38
2019-06-01T21:56:38.307Z,100705.23
2019-06-01T21:59:43.063Z,100708.52
2019-06-01T22:02:47.950Z,100707.17
2019-06-01T22:05:52.833Z,100707.17
2019-06-01T22:08:57.699Z,100704.38
2019-06-01T22:12:03.049Z,100705.53
2019-06-01T22:15:07.980Z,100705.67
2019-06-01T22:18:12.831Z,100701.27
2019-06-01T22:21:17.700Z,100698.95
2019-06-01T22:24:23.843Z,100696.48
2019-06-01T22:27:29.300Z,100696.73
2019-06-01T22:30:34.544Z,100698.06
2019-06-01T22:33:39.371Z,100692.05
2019-06-01T22:36:44.179Z,100696.45
2019-06-01T22:39:49.058Z,100698.13
2019-06-01T22:42:54.224Z,100688.61
2019-06-01T22:46:00.674Z,100691.50
2019-06-01T22:49:06.665Z,100689.35
2019-06-01T22:52:11.510Z,100690.09
2019-06-01T22:55:16.854Z,100691.91
2019-06-01T22:58:23.204Z,100688.72
2019-06-01T23:01:28.801Z,100689.94
2019-06-01T23:04:33.864Z,100686.63
2019-06-01T23:07:39.699Z,100681.22
2019-06-01T23:10:44.845Z,100675.48
2019-06-01T23:13:53.308Z,100673.88
2019-06-01T23:16:56.188Z,100671.19
2019-06-01T23:20:01.274Z,100673.88
2019-06-01T23:23:06.370Z,100664.84
2019-06-01T23:26:11.427Z,100669.07
2019-06-01T23:29:16.482Z,100673.69
2019-06-01T23:32:22.388Z,100667.89
2019-06-01T23:35:28.602Z,100664.05
2019-06-01T23:38:33.527Z,100656.94
2019-06-01T23:41:38.555Z,100655.38
2019-06-01T23:44:43.304Z,100646.11
2019-06-01T23:47:48.058Z,100655.14
2019-06-01T23:50:52.820Z,100653.32
2019-06-01T23:53:57.937Z,100649.38
2019-06-01T23:57:02.710Z,100648.06
